createdAt,value
2019-04-14T00:04:13.981Z,68.65
2019-04-14T00:07:02.012Z,64.12
2019-04-14T00:09:50.039Z,66.33
2019-04-14T00:12:38.467Z,70.95
2019-04-14T00:15:33.861Z,66.25
2019-04-14T00:18:16.462Z,64.03
2019-04-14T00:21:04.934Z,76.33
2019-04-14T00:23:54.463Z,68.75
2019-04-14T00:26:44.388Z,60.73
2019-04-14T00:29:32.974Z,63.75
2019-04-14T00:32:02.977Z,67.07
2019-04-14T00:38:37.152Z,69.87
2019-04-14T00:44:45.657Z,68.47
2019-04-14T00:47:51.718Z,66.80
2019-04-14T00:50:29.957Z,69.17
2019-04-14T00:53:18.504Z,73.52
2019-04-14T00:56:08.352Z,73.35
2019-04-14T00:58:58.268Z,78.10
2019-04-14T01:01:48.374Z,73.10
2019-04-14T01:04:38.226Z,77.90
2019-04-14T01:07:26.856Z,77.12
2019-04-14T01:10:15.025Z,75.90
2019-04-14T01:13:03.066Z,63.50
2019-04-14T01:15:58.666Z,65.00
2019-04-14T01:18:40.835Z,72.47
2019-04-14T01:21:28.849Z,73.25
2019-04-14T01:24:18.467Z,75.75
2019-04-14T01:27:08.028Z,76.47
2019-04-14T01:29:56.641Z,71.63
2019-04-14T01:32:37.502Z,78.92
2019-04-14T01:35:18.673Z,67.35
2019-04-14T01:37:59.445Z,64.82
2019-04-14T01:40:40.244Z,67.25
2019-04-14T01:43:21.355Z,67.40
2019-04-14T01:46:13.759Z,81.60
2019-04-14T01:48:45.377Z,80.25
2019-04-14T01:54:56.872Z,77.40
2019-04-14T01:57:48.233Z,82.05
2019-04-14T02:00:49.291Z,76.57
2019-04-14T02:03:32.295Z,85.95
2019-04-14T02:06:13.712Z,80.20
2019-04-14T02:08:54.785Z,79.45
2019-04-14T02:11:35.599Z,84.00
2019-04-14T02:14:16.853Z,88.12
2019-04-14T02:17:00.736Z,99.37
2019-04-14T02:19:41.588Z,84.97
2019-04-14T02:22:22.972Z,84.87
2019-04-14T02:25:03.876Z,77.62
2019-04-14T02:27:45.057Z,88.85
2019-04-14T02:30:33.976Z,87.55
2019-04-14T02:33:40.352Z,93.78
2019-04-14T02:36:21.697Z,91.37
2019-04-14T02:41:49.309Z,86.17
2019-04-14T02:44:33.626Z,96.15
2019-04-14T02:47:18.167Z,84.47
2019-04-14T02:49:50.801Z,90.87
2019-04-14T02:52:35.513Z,87.62
2019-04-14T02:55:30.016Z,86.97
2019-04-14T02:58:03.535Z,86.75
2019-04-14T03:00:41.436Z,86.53
2019-04-14T03:06:05.383Z,103.12
2019-04-14T03:09:16.345Z,102.00
2019-04-14T03:11:31.404Z,96.33
2019-04-14T03:14:17.400Z,90.77
2019-04-14T03:23:19.408Z,95.90
2019-04-14T03:26:00.887Z,87.42
2019-04-14T03:28:44.275Z,88.33
2019-04-14T03:32:02.507Z,83.03
2019-04-14T03:37:16.371Z,89.35
2019-04-14T03:42:28.870Z,80.40
2019-04-14T03:45:07.531Z,80.67
2019-04-14T03:48:15.054Z,97.70
2019-04-14T03:55:41.588Z,87.57
2019-04-14T03:58:15.937Z,80.17
2019-04-14T04:00:45.127Z,87.75
2019-04-14T04:03:34.884Z,87.37
2019-04-14T04:06:22.979Z,80.45
2019-04-14T04:09:11.038Z,89.57
2019-04-14T04:12:00.504Z,87.60
2019-04-14T04:14:49.028Z,87.57
2019-04-14T04:17:56.380Z,81.37
2019-04-14T04:21:03.479Z,79.65
2019-04-14T04:24:10.776Z,84.67
2019-04-14T04:27:20.043Z,82.42
2019-04-14T04:30:27.666Z,80.50
2019-04-14T04:33:19.871Z,80.17
2019-04-14T04:36:07.207Z,76.60
2019-04-14T04:39:08.205Z,75.83
2019-04-14T04:41:49.458Z,76.62
2019-04-14T04:44:31.333Z,76.07
2019-04-14T04:47:12.700Z,76.70
2019-04-14T04:49:53.522Z,72.35
2019-04-14T04:52:34.468Z,74.92
2019-04-14T04:55:15.603Z,72.15
2019-04-14T04:57:44.492Z,77.25
2019-04-14T05:00:33.057Z,71.65
2019-04-14T05:03:23.249Z,74.65
2019-04-14T05:06:31.244Z,67.85
2019-04-14T05:12:58.963Z,68.07
2019-04-14T05:15:51.068Z,74.37
2019-04-14T05:18:40.131Z,72.87
2019-04-14T05:21:28.213Z,70.83
2019-04-14T05:24:16.218Z,67.12
2019-04-14T05:27:04.220Z,66.02
2019-04-14T05:29:52.189Z,62.83
2019-04-14T05:32:21.624Z,63.90
2019-04-14T05:34:52.190Z,72.20
2019-04-14T05:37:42.117Z,66.47
2019-04-14T05:40:32.169Z,63.92
2019-04-14T05:43:30.198Z,63.85
2019-04-14T05:46:12.086Z,60.50
2019-04-14T05:49:02.094Z,63.58
2019-04-14T05:51:50.855Z,59.90
2019-04-14T05:54:40.340Z,67.22
2019-04-14T05:57:28.846Z,63.48
2019-04-14T06:03:27.762Z,55.75
2019-04-14T06:06:16.819Z,55.98
2019-04-14T06:09:06.524Z,60.12
2019-04-14T06:11:54.565Z,56.15
2019-04-14T06:14:42.547Z,54.93
2019-04-14T06:17:30.635Z,60.30
2019-04-14T06:20:18.970Z,57.50
2019-04-14T06:23:06.979Z,58.87
2019-04-14T06:25:36.833Z,57.17
2019-04-14T06:28:25.256Z,55.20
2019-04-14T06:31:32.315Z,63.95
2019-04-14T06:34:17.897Z,63.78
2019-04-14T06:36:56.989Z,52.33
2019-04-14T06:39:32.100Z,54.30
2019-04-14T06:42:01.094Z,57.27
2019-04-14T06:44:30.026Z,58.30
2019-04-14T06:46:59.015Z,58.50
2019-04-14T06:49:27.985Z,50.67
2019-04-14T06:51:56.743Z,50.43
2019-04-14T06:54:25.592Z,51.75
2019-04-14T06:56:54.470Z,52.37
2019-04-14T06:59:23.351Z,50.90
2019-04-14T07:01:52.117Z,47.62
2019-04-14T07:04:20.985Z,51.37
2019-04-14T07:06:51.405Z,51.07
2019-04-14T07:09:20.735Z,47.60
2019-04-14T07:11:49.677Z,46.70
2019-04-14T07:14:18.408Z,44.03
2019-04-14T07:16:47.895Z,44.83
2019-04-14T07:19:16.776Z,44.65
2019-04-14T07:21:45.573Z,41.73
2019-04-14T07:24:14.347Z,39.40
2019-04-14T07:26:43.171Z,36.38
2019-04-14T07:29:14.641Z,38.78
2019-04-14T07:32:04.877Z,36.85
2019-04-14T07:35:05.122Z,36.13
2019-04-14T07:37:56.234Z,35.63
2019-04-14T07:40:54.029Z,34.73
2019-04-14T07:43:36.789Z,34.75
2019-04-14T07:46:10.428Z,34.50
2019-04-14T07:48:48.762Z,34.13
2019-04-14T07:51:35.718Z,30.55
2019-04-14T07:54:09.555Z,32.38
2019-04-14T07:57:06.525Z,32.10
2019-04-14T07:59:50.482Z,30.48
2019-04-14T08:02:27.448Z,31.82
2019-04-14T08:05:08.479Z,31.05
2019-04-14T08:07:37.229Z,30.05
2019-04-14T08:10:07.190Z,29.18
2019-04-14T08:12:35.976Z,31.07
2019-04-14T08:15:05.924Z,29.82
2019-04-14T08:17:34.956Z,29.10
2019-04-14T08:20:04.952Z,28.00
2019-04-14T08:22:33.988Z,27.77
2019-04-14T08:25:02.863Z,28.15
2019-04-14T08:27:32.188Z,26.80
2019-04-14T08:30:01.079Z,28.23
2019-04-14T08:32:30.013Z,28.42
2019-04-14T08:34:58.884Z,27.30
2019-04-14T08:37:27.797Z,28.45
2019-04-14T08:39:56.876Z,29.20
2019-04-14T08:42:43.942Z,26.33
2019-04-14T08:45:22.492Z,29.65
2019-04-14T08:47:57.190Z,27.65
2019-04-14T08:50:39.559Z,26.75
2019-04-14T08:53:15.681Z,27.80
2019-04-14T08:56:04.051Z,30.82
2019-04-14T08:58:48.941Z,26.62
2019-04-14T09:01:40.301Z,28.30
2019-04-14T09:04:22.953Z,26.30
2019-04-14T09:07:11.197Z,28.20
2019-04-14T09:09:42.829Z,25.27
2019-04-14T09:12:16.298Z,26.27
2019-04-14T09:14:56.150Z,25.20
2019-04-14T09:17:17.220Z,26.43
2019-04-14T09:19:47.563Z,24.52
2019-04-14T09:22:16.863Z,25.30
2019-04-14T09:24:46.500Z,24.72
2019-04-14T09:27:15.854Z,26.02
2019-04-14T09:29:45.090Z,24.07
2019-04-14T09:32:14.788Z,24.80
2019-04-14T09:34:43.789Z,23.80
2019-04-14T09:37:13.018Z,23.47
2019-04-14T09:39:41.754Z,23.12
2019-04-14T09:42:10.540Z,23.35
2019-04-14T09:44:40.115Z,23.70
2019-04-14T09:47:09.394Z,23.52
2019-04-14T09:49:38.772Z,25.17
2019-04-14T09:52:08.274Z,23.05
2019-04-14T09:54:37.514Z,22.47
2019-04-14T09:57:06.676Z,22.02
2019-04-14T09:59:35.481Z,24.43
2019-04-14T10:02:06.904Z,23.40
2019-04-14T10:04:35.780Z,21.90
2019-04-14T10:07:05.025Z,21.68
2019-04-14T10:09:34.029Z,22.70
2019-04-14T10:12:02.808Z,22.95
2019-04-14T10:14:31.892Z,22.17
2019-04-14T10:17:01.438Z,23.57
2019-04-14T10:19:31.612Z,22.35
2019-04-14T10:22:00.695Z,21.40
2019-04-14T10:24:29.787Z,20.77
2019-04-14T10:26:59.581Z,20.88
2019-04-14T10:29:28.708Z,22.05
2019-04-14T10:31:57.498Z,23.50
2019-04-14T10:34:26.272Z,26.37
2019-04-14T10:36:55.027Z,24.45
2019-04-14T10:39:23.861Z,23.45
2019-04-14T10:41:52.608Z,45.83
2019-04-14T10:44:24.057Z,24.43
2019-04-14T10:46:52.825Z,22.50
2019-04-14T10:49:22.128Z,22.98
2019-04-14T10:51:51.227Z,20.70
2019-04-14T10:54:20.571Z,19.52
2019-04-14T10:56:50.909Z,22.75
2019-04-14T10:59:20.116Z,20.95
2019-04-14T11:01:49.277Z,21.50
2019-04-14T11:04:18.296Z,20.85
2019-04-14T11:07:08.514Z,22.42
2019-04-14T11:09:37.830Z,23.63
2019-04-14T11:12:07.400Z,22.77
2019-04-14T11:14:36.489Z,22.45
2019-04-14T11:17:05.408Z,23.12
2019-04-14T11:19:34.577Z,24.05
2019-04-14T11:22:03.339Z,23.62
2019-04-14T11:24:32.312Z,23.38
2019-04-14T11:27:01.288Z,23.20
2019-04-14T11:29:30.564Z,22.25
2019-04-14T11:32:15.757Z,22.35
2019-04-14T11:34:50.538Z,23.98
2019-04-14T11:37:37.173Z,20.92
2019-04-14T11:40:08.566Z,22.60
2019-04-14T11:42:37.534Z,22.10
2019-04-14T11:45:06.521Z,21.35
2019-04-14T11:47:35.497Z,20.30
2019-04-14T11:50:04.941Z,20.92
2019-04-14T11:52:35.742Z,21.40
2019-04-14T11:55:05.234Z,21.68
2019-04-14T11:57:34.298Z,21.70
2019-04-14T12:00:14.864Z,22.62
2019-04-14T12:03:08.960Z,20.80
2019-04-14T12:06:02.754Z,21.42
2019-04-14T12:08:45.719Z,23.45
2019-04-14T12:11:14.796Z,20.32
2019-04-14T12:13:43.952Z,20.80
2019-04-14T12:16:13.083Z,20.68
2019-04-14T12:18:42.140Z,21.15
2019-04-14T12:21:10.967Z,20.00
2019-04-14T12:23:43.700Z,20.73
2019-04-14T12:26:13.240Z,22.03
2019-04-14T12:28:43.226Z,20.52
2019-04-14T12:31:13.361Z,22.47
2019-04-14T12:33:43.958Z,21.05
2019-04-14T12:36:14.666Z,20.45
2019-04-14T12:38:43.917Z,20.48
2019-04-14T12:41:17.956Z,24.32
2019-04-14T12:43:56.580Z,19.90
2019-04-14T12:46:56.798Z,23.73
2019-04-14T12:49:30.214Z,21.40
2019-04-14T12:52:21.442Z,19.67
2019-04-14T12:54:49.617Z,20.83
2019-04-14T12:57:25.085Z,20.03
2019-04-14T12:59:54.492Z,21.73
2019-04-14T13:02:30.095Z,20.43
2019-04-14T13:04:58.913Z,21.23
2019-04-14T13:07:27.833Z,21.93
2019-04-14T13:09:56.765Z,19.93
2019-04-14T13:12:25.596Z,20.15
2019-04-14T13:14:54.725Z,22.27
2019-04-14T13:17:23.777Z,22.62
2019-04-14T13:19:52.902Z,21.75
2019-04-14T13:22:33.224Z,21.68
2019-04-14T13:24:52.783Z,20.57
2019-04-14T13:27:23.248Z,21.17
2019-04-14T13:29:52.694Z,21.82
2019-04-14T13:32:40.703Z,22.95
2019-04-14T13:35:21.944Z,21.65
2019-04-14T13:38:02.754Z,20.90
2019-04-14T13:40:43.247Z,21.40
2019-04-14T13:43:23.809Z,21.00
2019-04-14T13:46:04.181Z,22.55
2019-04-14T13:48:44.775Z,21.97
2019-04-14T13:51:25.782Z,22.98
2019-04-14T13:54:06.355Z,23.05
2019-04-14T13:56:47.280Z,20.10
2019-04-14T13:59:28.265Z,20.48
2019-04-14T14:02:09.857Z,21.33
2019-04-14T14:04:52.247Z,22.48
2019-04-14T14:07:33.033Z,20.82
2019-04-14T14:10:14.259Z,20.20
2019-04-14T14:12:59.247Z,18.90
2019-04-14T14:15:47.347Z,20.00
2019-04-14T14:18:54.727Z,20.50
2019-04-14T14:22:02.237Z,18.63
2019-04-14T14:28:22.576Z,18.70
2019-04-14T14:31:10.828Z,19.80
2019-04-14T14:33:52.055Z,18.77
2019-04-14T14:36:32.515Z,19.70
2019-04-14T14:39:14.972Z,18.42
2019-04-14T14:41:55.883Z,18.57
2019-04-14T14:50:45.229Z,18.55
2019-04-14T14:53:25.909Z,17.35
2019-04-14T14:56:06.792Z,15.83
2019-04-14T14:58:48.005Z,15.95
2019-04-14T15:01:29.042Z,16.10
2019-04-14T15:04:09.766Z,15.35
2019-04-14T15:06:50.540Z,15.05
2019-04-14T15:09:31.311Z,14.50
2019-04-14T15:12:12.248Z,14.87
2019-04-14T15:14:53.148Z,14.73
2019-04-14T15:17:33.530Z,15.93
2019-04-14T15:20:14.575Z,14.53
2019-04-14T15:22:55.512Z,14.45
2019-04-14T15:25:36.553Z,14.18
2019-04-14T15:28:17.496Z,15.15
2019-04-14T15:30:58.252Z,14.95
2019-04-14T15:33:39.371Z,13.55
2019-04-14T15:36:20.388Z,14.90
2019-04-14T15:39:01.252Z,13.40
2019-04-14T15:41:42.515Z,13.83
2019-04-14T15:44:22.807Z,14.05
2019-04-14T15:47:03.547Z,14.45
2019-04-14T15:49:44.448Z,14.35
2019-04-14T15:52:25.672Z,15.10
2019-04-14T15:55:06.323Z,13.43
2019-04-14T16:01:02.563Z,13.48
2019-04-14T16:03:51.152Z,13.22
2019-04-14T16:06:50.850Z,17.60
2019-04-14T16:09:44.714Z,15.53
2019-04-14T16:15:30.495Z,14.63
2019-04-14T16:18:30.828Z,15.32
2019-04-14T16:21:11.959Z,16.30
2019-04-14T16:23:52.774Z,14.53
2019-04-14T16:29:56.570Z,15.85
2019-04-14T16:32:56.635Z,18.17
2019-04-14T16:35:37.231Z,16.48
2019-04-14T16:38:17.607Z,14.63
2019-04-14T16:40:58.263Z,15.98
2019-04-14T16:43:39.330Z,14.43
2019-04-14T16:46:19.902Z,15.75
2019-04-14T16:49:00.631Z,15.00
2019-04-14T16:51:46.227Z,14.65
2019-04-14T16:54:46.429Z,14.43
2019-04-14T16:57:46.483Z,14.33
2019-04-14T17:00:31.629Z,14.28
2019-04-14T17:03:13.095Z,14.18
2019-04-14T17:05:53.760Z,15.20
2019-04-14T17:08:34.449Z,14.90
2019-04-14T17:11:15.209Z,15.05
2019-04-14T17:14:01.516Z,14.45
2019-04-14T17:17:01.528Z,14.13
2019-04-14T17:20:03.829Z,13.58
2019-04-14T17:22:55.126Z,14.87
2019-04-14T17:25:41.479Z,13.85
2019-04-14T17:28:27.497Z,14.00
2019-04-14T17:31:26.957Z,14.40
2019-04-14T17:34:22.752Z,14.07
2019-04-14T17:37:11.883Z,14.50
2019-04-14T17:40:00.456Z,15.10
2019-04-14T17:42:46.623Z,14.10
2019-04-14T17:45:46.163Z,14.28
2019-04-14T17:48:45.571Z,14.07
2019-04-14T17:51:33.291Z,14.55
2019-04-14T17:54:33.305Z,13.65
2019-04-14T17:57:32.991Z,14.35
2019-04-14T18:00:18.611Z,14.35
2019-04-14T18:03:18.544Z,14.20
2019-04-14T18:06:04.751Z,13.97
2019-04-14T18:09:05.861Z,13.90
2019-04-14T18:11:56.003Z,14.40
2019-04-14T18:14:55.635Z,13.68
2019-04-14T18:17:58.004Z,13.78
2019-04-14T18:20:42.396Z,13.57
2019-04-14T18:23:22.760Z,13.25
2019-04-14T18:26:03.040Z,12.90
2019-04-14T18:29:02.872Z,13.20
2019-04-14T18:32:08.657Z,13.78
2019-04-14T18:35:10.964Z,13.22
2019-04-14T18:38:10.975Z,12.90
2019-04-14T18:40:58.787Z,14.43
2019-04-14T18:44:05.847Z,13.22
2019-04-14T18:47:12.894Z,12.88
2019-04-14T18:50:20.372Z,12.98
2019-04-14T18:53:12.559Z,13.05
2019-04-14T18:56:15.071Z,13.13
2019-04-14T18:59:22.143Z,13.83
2019-04-14T19:02:12.244Z,13.88
2019-04-14T19:05:00.254Z,13.28
2019-04-14T19:07:48.215Z,14.03
2019-04-14T19:10:36.211Z,14.23
2019-04-14T19:22:26.159Z,13.87
2019-04-14T19:25:14.238Z,13.72
2019-04-14T19:28:02.212Z,13.45
2019-04-14T19:30:50.632Z,12.23
2019-04-14T19:33:38.632Z,12.03
2019-04-14T19:36:26.720Z,12.05
2019-04-14T19:39:14.700Z,10.72
2019-04-14T19:42:02.716Z,10.80
2019-04-14T19:44:50.919Z,10.25
2019-04-14T19:47:38.958Z,10.00
2019-04-14T19:50:26.920Z,10.05
2019-04-14T19:53:15.088Z,9.65
2019-04-14T19:56:03.108Z,9.75
2019-04-14T19:58:51.123Z,9.55
2019-04-14T20:01:39.130Z,9.58
2019-04-14T20:04:27.191Z,9.60
2019-04-14T20:07:15.327Z,9.18
2019-04-14T20:10:03.411Z,9.40
2019-04-14T20:12:51.583Z,9.80
2019-04-14T20:15:58.644Z,9.10
2019-04-14T20:19:10.536Z,9.17
2019-04-14T20:22:14.457Z,9.25
2019-04-14T20:25:33.154Z,9.33
2019-04-14T20:28:30.625Z,9.18
2019-04-14T20:31:37.897Z,9.00
2019-04-14T20:34:19.300Z,8.43
2019-04-14T20:36:59.833Z,8.53
2019-04-14T20:42:52.912Z,8.98
2019-04-14T20:45:33.724Z,8.60
2019-04-14T20:48:14.601Z,9.10
2019-04-14T20:50:55.412Z,8.85
2019-04-14T20:53:36.140Z,9.05
2019-04-14T20:56:16.909Z,8.60
2019-04-14T20:58:57.624Z,9.00
2019-04-14T21:01:41.842Z,8.78
2019-04-14T21:07:53.273Z,8.70
2019-04-14T21:10:41.943Z,8.98
2019-04-14T21:13:41.568Z,8.58
2019-04-14T21:16:19.714Z,9.05
2019-04-14T21:19:12.384Z,8.68
2019-04-14T21:22:19.509Z,8.70
2019-04-14T21:25:26.676Z,9.58
2019-04-14T21:28:21.528Z,8.95
2019-04-14T21:31:28.888Z,8.63
2019-04-14T21:34:13.005Z,9.10
2019-04-14T21:37:13.342Z,8.73
2019-04-14T21:40:12.898Z,8.63
2019-04-14T21:42:53.574Z,9.38
2019-04-14T21:45:34.309Z,9.50
2019-04-14T21:48:15.201Z,9.63
2019-04-14T21:50:56.265Z,10.13
2019-04-14T21:53:37.085Z,9.95
2019-04-14T21:56:13.280Z,9.58
2019-04-14T21:59:14.752Z,9.95
2019-04-14T22:02:21.868Z,10.32
2019-04-14T22:08:25.040Z,10.20
2019-04-14T22:11:00.062Z,10.60
2019-04-14T22:13:28.868Z,10.53
2019-04-14T22:16:16.856Z,10.70
2019-04-14T22:19:04.852Z,11.25
2019-04-14T22:21:52.847Z,11.90
2019-04-14T22:24:40.836Z,11.43
2019-04-14T22:27:28.871Z,12.10
2019-04-14T22:30:16.955Z,11.22
2019-04-14T22:33:05.092Z,12.35
2019-04-14T22:35:46.189Z,11.83
2019-04-14T22:38:26.857Z,12.55
2019-04-14T22:41:07.632Z,11.68
2019-04-14T22:43:48.616Z,12.57
2019-04-14T22:46:28.939Z,11.97
2019-04-14T22:49:09.659Z,11.97
2019-04-14T22:51:50.389Z,12.07
2019-04-14T22:54:31.315Z,11.57
2019-04-14T22:57:12.088Z,11.70
2019-04-14T22:59:53.213Z,11.60
2019-04-14T23:02:52.947Z,12.15
2019-04-14T23:05:52.579Z,11.60
2019-04-14T23:08:52.490Z,11.35
2019-04-14T23:11:52.463Z,11.65
2019-04-14T23:14:40.000Z,11.63
2019-04-14T23:17:40.144Z,12.00
2019-04-14T23:20:26.246Z,12.23
2019-04-14T23:23:25.670Z,12.28
2019-04-14T23:26:06.736Z,11.93
2019-04-14T23:28:47.639Z,11.78
2019-04-14T23:31:28.554Z,13.38
2019-04-14T23:34:09.013Z,12.75
2019-04-14T23:36:49.693Z,13.00
2019-04-14T23:39:30.324Z,14.18
2019-04-14T23:42:11.059Z,13.28
2019-04-14T23:44:51.669Z,13.90
2019-04-14T23:47:32.780Z,14.60
2019-04-14T23:50:13.580Z,13.98
2019-04-14T23:52:54.386Z,13.70
2019-04-14T23:55:35.315Z,14.53
2019-04-14T23:58:16.324Z,14.90
